Time;durP1;ratioP1;P1;durP2;ratioP2;P2;SDS_P1;SDS_P2;PMS_P1;PMS_P2;Temp;Humidity;BMP_temperature;BMP_pressure;BME280_temperature;BME280_humidity;BME280_pressure;Samples;Min_cycle;Max_cycle;Signal;HPM_P1;HPM_P2
2021/11/13 00:01:56;;;;;;;;;;;;;;;;;;5047028;28;20497;-58
2021/11/13 00:04:22;;;;;;;;;;;;;;;;;;5045815;28;19919;-58
2021/11/13 00:06:48;;;;;;;;;;;;;;;;;;5045612;28;20388;-58
2021/11/13 00:09:14;;;;;;;;;;;;;;;;;;5045922;28;19913;-58
2021/11/13 00:11:40;;;;;;;;;;;;;;;;;;5046188;28;19924;-58
2021/11/13 00:14:12;;;;;;;;;;;;;;;;;;5045845;28;20446;-58
2021/11/13 00:16:38;;;;;;;;;;;;;;;;;;5046193;28;20348;-58
2021/11/13 00:19:05;;;;;;;;;;;;;;;;;;5045793;28;19948;-58
2021/11/13 00:21:31;;;;;;;;;;;;;;;;;;5046278;28;19991;-58
2021/11/13 00:23:57;;;;;;;;;;;;;;;;;;5046891;28;20347;-58
2021/11/13 00:26:24;;;;;;;;;;;;;;;;;;5044848;28;20366;-59
2021/11/13 00:28:50;;;;;;;;;;;;;;;;;;5045883;28;20311;-58
2021/11/13 00:31:15;;;;;;;;;;;;;;;;;;5045435;28;19919;-58
2021/11/13 00:33:41;;;;;;;;;;;;;;;;;;5045410;28;19992;-58
2021/11/13 00:36:07;;;;;;;;;;;;;;;;;;5045571;28;19917;-58
2021/11/13 00:38:33;;;;;;;;;;;;;;;;;;5044352;28;19920;-58
2021/11/13 00:40:59;;;;;;;;;;;;;;;;;;5059315;28;19920;-59
2021/11/13 00:43:27;;;;;;;;;;;;;;;;;;5066307;28;20394;-58
2021/11/13 00:45:52;;;;;;;;;;;;;;;;;;5065494;28;19916;-59
2021/11/13 00:48:18;;;;;;;;;;;;;;;;;;5061868;28;19974;-59
2021/11/13 00:50:44;;;;;;;;;;;;;;;;;;5052232;28;20372;-59
2021/11/13 00:53:10;;;;;;;;;;;;;;;;;;5045395;28;19909;-59
2021/11/13 00:55:37;;;;;;;;;;;;;;;;;;5045348;28;19935;-59
2021/11/13 00:58:04;;;;;;;;;;;;;;;;;;5055447;28;19917;-59
2021/11/13 01:00:30;;;;;;;;;;;;;;;;;;5050585;28;20378;-59
2021/11/13 01:02:56;;;;;;;;;;;;;;;;;;5065416;28;19943;-59
2021/11/13 01:05:22;;;;;;;;;;;;;;;;;;5065431;28;19948;-58
2021/11/13 01:07:48;;;;;;;;;;;;;;;;;;5058763;28;20341;-58
2021/11/13 01:10:13;;;;;;;;;;;;;;;;;;5045251;28;20430;-59
2021/11/13 01:12:39;;;;;;;;;;;;;;;;;;5045639;28;19921;-58
2021/11/13 01:15:05;;;;;;;;;;;;;;;;;;5045111;28;20042;-59
2021/11/13 01:17:32;;;;;;;;;;;;;;;;;;5065310;28;20341;-59
2021/11/13 01:19:59;;;;;;;;;;;;;;;;;;5065522;28;19912;-59
2021/11/13 01:22:25;;;;;;;;;;;;;;;;;;5066127;28;19915;-59
2021/11/13 01:24:51;;;;;;;;;;;;;;;;;;5063083;28;19913;-59
2021/11/13 01:27:17;;;;;;;;;;;;;;;;;;5063570;28;20003;-58
2021/11/13 01:29:43;;;;;;;;;;;;;;;;;;5065698;28;19999;-58
2021/11/13 01:32:09;;;;;;;;;;;;;;;;;;5065038;28;19912;-58
2021/11/13 01:34:35;;;;;;;;;;;;;;;;;;5064181;28;19999;-59
2021/11/13 01:37:00;;;;;;;;;;;;;;;;;;5045032;28;19920;-58
2021/11/13 01:39:26;;;;;;;;;;;;;;;;;;5045799;28;19909;-58
2021/11/13 01:41:52;;;;;;;;;;;;;;;;;;5045337;28;19920;-58
2021/11/13 01:44:18;;;;;;;;;;;;;;;;;;5045339;28;20409;-58
2021/11/13 01:46:44;;;;;;;;;;;;;;;;;;5043168;28;20402;-58
2021/11/13 01:49:10;;;;;;;;;;;;;;;;;;5044609;28;19909;-59
2021/11/13 01:51:36;;;;;;;;;;;;;;;;;;5045364;28;19992;-58
2021/11/13 01:54:06;;;;;;;;;;;;;;;;;;5044827;28;20011;-59
2021/11/13 01:56:31;;;;;;;;;;;;;;;;;;5057213;28;19922;-59
2021/11/13 01:58:57;;;;;;;;;;;;;;;;;;5065637;28;20298;-59
2021/11/13 02:01:23;;;;;;;;;;;;;;;;;;5064846;28;19920;-58
2021/11/13 02:03:49;;;;;;;;;;;;;;;;;;5065063;28;20019;-59
2021/11/13 02:06:15;;;;;;;;;;;;;;;;;;5063368;28;19939;-58
2021/11/13 02:08:42;;;;;;;;;;;;;;;;;;5064937;28;19915;-58
2021/11/13 02:11:08;;;;;;;;;;;;;;;;;;5064763;28;19916;-58
2021/11/13 02:13:34;;;;;;;;;;;;;;;;;;5064943;28;20373;-58
2021/11/13 02:15:59;;;;;;;;;;;;;;;;;;5055463;28;19920;-59
2021/11/13 02:18:26;;;;;;;;;;;;;;;;;;5045382;28;19962;-58
2021/11/13 02:20:52;;;;;;;;;;;;;;;;;;5047461;28;20074;-58
2021/11/13 02:23:18;;;;;;;;;;;;;;;;;;5065115;28;19912;-58
2021/11/13 02:25:45;;;;;;;;;;;;;;;;;;5063688;28;19917;-58
2021/11/13 02:28:11;;;;;;;;;;;;;;;;;;5064022;28;20431;-58
2021/11/13 02:30:37;;;;;;;;;;;;;;;;;;5064959;28;19957;-58
2021/11/13 02:33:04;;;;;;;;;;;;;;;;;;5064890;28;19917;-58
2021/11/13 02:35:32;;;;;;;;;;;;;;;;;;5063211;28;19986;-58
2021/11/13 02:37:59;;;;;;;;;;;;;;;;;;5064758;28;19912;-58
2021/11/13 02:40:25;;;;;;;;;;;;;;;;;;5065246;28;19955;-58
2021/11/13 02:42:51;;;;;;;;;;;;;;;;;;5063552;28;20005;-58
2021/11/13 02:45:17;;;;;;;;;;;;;;;;;;5048765;28;19917;-58
2021/11/13 02:47:43;;;;;;;;;;;;;;;;;;5064628;28;19919;-58
2021/11/13 02:50:09;;;;;;;;;;;;;;;;;;5063925;28;20239;-58
2021/11/13 02:52:35;;;;;;;;;;;;;;;;;;5063496;28;19912;-58
2021/11/13 02:55:01;;;;;;;;;;;;;;;;;;5062955;28;19921;-58
2021/11/13 02:57:28;;;;;;;;;;;;;;;;;;5066814;28;19915;-59
2021/11/13 02:59:54;;;;;;;;;;;;;;;;;;5063358;28;19924;-58
2021/11/13 03:02:19;;;;;;;;;;;;;;;;;;5048372;28;20299;-58
2021/11/13 03:04:45;;;;;;;;;;;;;;;;;;5047604;28;20030;-58
2021/11/13 03:07:11;;;;;;;;;;;;;;;;;;5047738;28;19908;-58
2021/11/13 03:09:38;;;;;;;;;;;;;;;;;;5052793;28;19938;-58
2021/11/13 03:12:05;;;;;;;;;;;;;;;;;;5067781;28;20327;-59
2021/11/13 03:14:31;;;;;;;;;;;;;;;;;;5066704;28;19916;-58
2021/11/13 03:16:57;;;;;;;;;;;;;;;;;;5069034;28;19957;-58
2021/11/13 03:19:24;;;;;;;;;;;;;;;;;;5067296;28;20347;-58
2021/11/13 03:21:50;;;;;;;;;;;;;;;;;;5068149;28;19912;-58
2021/11/13 03:24:15;;;;;;;;;;;;;;;;;;5057472;28;20297;-59
2021/11/13 03:26:42;;;;;;;;;;;;;;;;;;5047751;28;19909;-58
2021/11/13 03:29:08;;;;;;;;;;;;;;;;;;5047400;28;19913;-58
2021/11/13 03:31:34;;;;;;;;;;;;;;;;;;5047789;28;20012;-58
2021/11/13 03:34:00;;;;;;;;;;;;;;;;;;5047807;28;19916;-59
2021/11/13 03:36:26;;;;;;;;;;;;;;;;;;5048378;28;20043;-58
2021/11/13 03:38:52;;;;;;;;;;;;;;;;;;5047336;28;20059;-58
2021/11/13 03:41:18;;;;;;;;;;;;;;;;;;5046995;28;19909;-58
2021/11/13 03:43:44;;;;;;;;;;;;;;;;;;5047603;28;20261;-58
2021/11/13 03:46:11;;;;;;;;;;;;;;;;;;5052614;28;19916;-58
2021/11/13 03:48:37;;;;;;;;;;;;;;;;;;5066875;28;19966;-58
2021/11/13 03:51:03;;;;;;;;;;;;;;;;;;5067233;28;19943;-58
2021/11/13 03:53:28;;;;;;;;;;;;;;;;;;5067640;28;19912;-59
2021/11/13 03:55:54;;;;;;;;;;;;;;;;;;5062552;28;20461;-58
2021/11/13 03:58:20;;;;;;;;;;;;;;;;;;5066858;28;19908;-58
2021/11/13 04:00:46;;;;;;;;;;;;;;;;;;5067100;28;19951;-58
2021/11/13 04:03:13;;;;;;;;;;;;;;;;;;5067319;28;20014;-58
2021/11/13 04:05:39;;;;;;;;;;;;;;;;;;5065802;28;19994;-58
2021/11/13 04:08:06;;;;;;;;;;;;;;;;;;5066049;28;19912;-58
2021/11/13 04:10:32;;;;;;;;;;;;;;;;;;5066310;28;19952;-59
2021/11/13 04:12:58;;;;;;;;;;;;;;;;;;5064642;28;19955;-58
2021/11/13 04:15:24;;;;;;;;;;;;;;;;;;5065576;28;19959;-58
2021/11/13 04:17:49;;;;;;;;;;;;;;;;;;5066670;28;19912;-58
2021/11/13 04:20:17;;;;;;;;;;;;;;;;;;5066198;28;20059;-58
2021/11/13 04:22:43;;;;;;;;;;;;;;;;;;5064678;28;20403;-58
2021/11/13 04:25:09;;;;;;;;;;;;;;;;;;5066705;28;20000;-58
2021/11/13 04:27:35;;;;;;;;;;;;;;;;;;5066449;28;19912;-58
2021/11/13 04:30:01;;;;;;;;;;;;;;;;;;5066581;28;19954;-58
2021/11/13 04:32:29;;;;;;;;;;;;;;;;;;5065039;28;20253;-58
2021/11/13 04:37:24;;;;;;;;;;;;;;;;;;5066321;28;19943;-58
2021/11/13 04:39:50;;;;;;;;;;;;;;;;;;5066403;28;20391;-58
2021/11/13 04:42:15;;;;;;;;;;;;;;;;;;5060021;28;20003;-58
2021/11/13 04:44:41;;;;;;;;;;;;;;;;;;5046240;28;19909;-58
2021/11/13 04:47:07;;;;;;;;;;;;;;;;;;5045697;28;19909;-58
2021/11/13 04:49:33;;;;;;;;;;;;;;;;;;5045697;28;19908;-59
2021/11/13 04:51:59;;;;;;;;;;;;;;;;;;5048715;28;20020;-58
2021/11/13 04:54:25;;;;;;;;;;;;;;;;;;5058833;28;20015;-58
2021/11/13 04:56:53;;;;;;;;;;;;;;;;;;5046131;28;19917;-58
2021/11/13 04:59:20;;;;;;;;;;;;;;;;;;5054684;28;19913;-58
2021/11/13 05:01:46;;;;;;;;;;;;;;;;;;5064821;28;19908;-59
2021/11/13 05:04:11;;;;;;;;;;;;;;;;;;5065535;28;20407;-58
2021/11/13 05:06:38;;;;;;;;;;;;;;;;;;5065904;28;19939;-58
2021/11/13 05:09:05;;;;;;;;;;;;;;;;;;5065718;28;19915;-58
2021/11/13 05:11:31;;;;;;;;;;;;;;;;;;5063981;28;19920;-58
2021/11/13 05:13:57;;;;;;;;;;;;;;;;;;5048991;28;19919;-58
2021/11/13 05:16:24;;;;;;;;;;;;;;;;;;5045483;28;19955;-58
2021/11/13 05:18:50;;;;;;;;;;;;;;;;;;5045183;28;19913;-58
2021/11/13 05:21:16;;;;;;;;;;;;;;;;;;5045160;28;19916;-58
2021/11/13 05:23:42;;;;;;;;;;;;;;;;;;5058613;28;19923;-58
2021/11/13 05:26:08;;;;;;;;;;;;;;;;;;5065905;28;20291;-58
2021/11/13 05:28:34;;;;;;;;;;;;;;;;;;5065134;28;19915;-58
2021/11/13 05:31:00;;;;;;;;;;;;;;;;;;5065848;28;19912;-58
2021/11/13 05:33:26;;;;;;;;;;;;;;;;;;5063522;28;19955;-58
2021/11/13 05:35:52;;;;;;;;;;;;;;;;;;5065443;28;19916;-58
2021/11/13 05:38:18;;;;;;;;;;;;;;;;;;5065171;28;20402;-58
2021/11/13 05:40:44;;;;;;;;;;;;;;;;;;5064092;28;19912;-58
2021/11/13 05:43:10;;;;;;;;;;;;;;;;;;5062687;28;19916;-58
2021/11/13 05:45:37;;;;;;;;;;;;;;;;;;5065337;28;19920;-58
2021/11/13 05:48:03;;;;;;;;;;;;;;;;;;5064431;28;19905;-58
2021/11/13 05:50:29;;;;;;;;;;;;;;;;;;5065706;28;19908;-58
2021/11/13 05:52:55;;;;;;;;;;;;;;;;;;5058838;28;19923;-59
2021/11/13 05:55:24;;;;;;;;;;;;;;;;;;5045031;28;19917;-58
2021/11/13 05:57:50;;;;;;;;;;;;;;;;;;5045231;28;19912;-58
2021/11/13 06:00:17;;;;;;;;;;;;;;;;;;5047268;28;19948;-58
2021/11/13 06:02:43;;;;;;;;;;;;;;;;;;5059673;28;19959;-58
2021/11/13 06:05:09;;;;;;;;;;;;;;;;;;5045131;28;20439;-58
2021/11/13 06:07:35;;;;;;;;;;;;;;;;;;5044917;28;19913;-58
2021/11/13 06:10:01;;;;;;;;;;;;;;;;;;5044987;28;19913;-58
2021/11/13 06:12:27;;;;;;;;;;;;;;;;;;5044995;28;20368;-58
2021/11/13 06:14:53;;;;;;;;;;;;;;;;;;5045348;28;19919;-58
2021/11/13 06:17:18;;;;;;;;;;;;;;;;;;5044319;28;19917;-58
2021/11/13 06:19:45;;;;;;;;;;;;;;;;;;5044987;28;19909;-58
2021/11/13 06:22:12;;;;;;;;;;;;;;;;;;5044835;28;19971;-58
2021/11/13 06:24:38;;;;;;;;;;;;;;;;;;5044784;28;20183;-60
2021/11/13 06:27:04;;;;;;;;;;;;;;;;;;5045384;28;19913;-57
2021/11/13 06:29:31;;;;;;;;;;;;;;;;;;5064755;28;20339;-58
2021/11/13 06:31:58;;;;;;;;;;;;;;;;;;5066112;28;19974;-57
2021/11/13 06:34:24;;;;;;;;;;;;;;;;;;5067244;28;19963;-57
2021/11/13 06:36:50;;;;;;;;;;;;;;;;;;5068758;28;19967;-58
2021/11/13 06:39:15;;;;;;;;;;;;;;;;;;5068104;28;19919;-57
2021/11/13 06:41:41;;;;;;;;;;;;;;;;;;5061326;28;19917;-57
2021/11/13 06:44:07;;;;;;;;;;;;;;;;;;5048420;28;19913;-58
2021/11/13 06:46:33;;;;;;;;;;;;;;;;;;5047542;28;19912;-58
2021/11/13 06:48:59;;;;;;;;;;;;;;;;;;5048760;28;19909;-58
2021/11/13 06:51:26;;;;;;;;;;;;;;;;;;5048881;28;19909;-57
2021/11/13 06:53:52;;;;;;;;;;;;;;;;;;5048444;28;20044;-58
2021/11/13 06:56:18;;;;;;;;;;;;;;;;;;5048011;28;19921;-57
2021/11/13 06:58:45;;;;;;;;;;;;;;;;;;5048159;28;19915;-58
2021/11/13 07:01:11;;;;;;;;;;;;;;;;;;5047344;28;19913;-58
2021/11/13 07:03:37;;;;;;;;;;;;;;;;;;5050341;28;19919;-57
2021/11/13 07:06:04;;;;;;;;;;;;;;;;;;5062166;28;19909;-58
2021/11/13 07:08:30;;;;;;;;;;;;;;;;;;5066846;28;19977;-58
2021/11/13 07:10:56;;;;;;;;;;;;;;;;;;5048731;28;19916;-58
2021/11/13 07:13:23;;;;;;;;;;;;;;;;;;5060880;28;19923;-57
2021/11/13 07:15:49;;;;;;;;;;;;;;;;;;5060488;28;19923;-57
2021/11/13 07:18:15;;;;;;;;;;;;;;;;;;5069150;28;19912;-58
2021/11/13 07:20:41;;;;;;;;;;;;;;;;;;5051681;28;20265;-57
2021/11/13 07:23:07;;;;;;;;;;;;;;;;;;5049154;28;20722;-58
2021/11/13 07:25:33;;;;;;;;;;;;;;;;;;5051173;28;20255;-57
2021/11/13 07:28:12;;;;;;;;;;;;;;;;;;5056260;28;20018;-57
2021/11/13 07:30:40;;;;;;;;;;;;;;;;;;5053305;28;20295;-57
2021/11/13 07:33:06;;;;;;;;;;;;;;;;;;5068555;28;19913;-57
2021/11/13 07:35:32;;;;;;;;;;;;;;;;;;5062661;28;20354;-58
2021/11/13 07:37:57;;;;;;;;;;;;;;;;;;5054366;28;19924;-57
2021/11/13 07:40:24;;;;;;;;;;;;;;;;;;5053959;28;19920;-57
2021/11/13 07:42:50;;;;;;;;;;;;;;;;;;5049816;28;19913;-58
2021/11/13 07:45:16;;;;;;;;;;;;;;;;;;5068487;28;19920;-58
2021/11/13 07:47:42;;;;;;;;;;;;;;;;;;5068211;28;19916;-57
2021/11/13 07:50:08;;;;;;;;;;;;;;;;;;5068773;28;19909;-57
2021/11/13 07:52:34;;;;;;;;;;;;;;;;;;5059353;28;20035;-58
2021/11/13 07:55:00;;;;;;;;;;;;;;;;;;5060635;28;19912;-60
2021/11/13 07:57:26;;;;;;;;;;;;;;;;;;5068734;28;19913;-60
2021/11/13 07:59:52;;;;;;;;;;;;;;;;;;5050069;28;19948;-60
2021/11/13 08:02:18;;;;;;;;;;;;;;;;;;5063507;28;19917;-58
2021/11/13 08:04:44;;;;;;;;;;;;;;;;;;5079863;28;19913;-58
2021/11/13 08:07:10;;;;;;;;;;;;;;;;;;5088997;28;19980;-58
2021/11/13 08:09:36;;;;;;;;;;;;;;;;;;5085769;28;20549;-58
2021/11/13 08:12:02;;;;;;;;;;;;;;;;;;5069794;28;19940;-58
2021/11/13 08:14:28;;;;;;;;;;;;;;;;;;5064453;28;19917;-58
2021/11/13 08:16:54;;;;;;;;;;;;;;;;;;5056277;28;19920;-57
2021/11/13 08:19:20;;;;;;;;;;;;;;;;;;5047790;28;19912;-58
2021/11/13 08:21:45;;;;;;;;;;;;;;;;;;5065573;28;19908;-58
2021/11/13 08:24:11;;;;;;;;;;;;;;;;;;5088073;28;20011;-58
2021/11/13 08:26:37;;;;;;;;;;;;;;;;;;5084890;28;19916;-58
2021/11/13 08:29:03;;;;;;;;;;;;;;;;;;5067903;28;19923;-58
2021/11/13 08:31:29;;;;;;;;;;;;;;;;;;5065081;28;19942;-57
2021/11/13 08:33:55;;;;;;;;;;;;;;;;;;5055517;28;19967;-58
2021/11/13 08:36:21;;;;;;;;;;;;;;;;;;5057445;28;20478;-57
2021/11/13 08:38:47;;;;;;;;;;;;;;;;;;5067725;28;19923;-57
2021/11/13 08:41:13;;;;;;;;;;;;;;;;;;5082615;28;19916;-57
2021/11/13 08:43:39;;;;;;;;;;;;;;;;;;5083400;28;19919;-57
2021/11/13 08:46:05;;;;;;;;;;;;;;;;;;5087364;28;19912;-57
2021/11/13 08:48:31;;;;;;;;;;;;;;;;;;5078059;28;20007;-57
2021/11/13 08:50:57;;;;;;;;;;;;;;;;;;5083708;28;19951;-58
2021/11/13 08:53:23;;;;;;;;;;;;;;;;;;5067130;28;19912;-58
2021/11/13 08:55:49;;;;;;;;;;;;;;;;;;5053540;28;19920;-58
2021/11/13 08:58:15;;;;;;;;;;;;;;;;;;5050584;28;19923;-58
2021/11/13 09:00:40;;;;;;;;;;;;;;;;;;5052319;28;19920;-58
2021/11/13 09:03:06;;;;;;;;;;;;;;;;;;5057044;28;19912;-58
2021/11/13 09:05:32;;;;;;;;;;;;;;;;;;5060709;28;19969;-58
2021/11/13 09:07:59;;;;;;;;;;;;;;;;;;5062882;28;19912;-59
2021/11/13 09:10:25;;;;;;;;;;;;;;;;;;5050210;28;19920;-59
2021/11/13 09:12:51;;;;;;;;;;;;;;;;;;5058308;28;19917;-58
2021/11/13 09:15:17;;;;;;;;;;;;;;;;;;5060351;28;19958;-58
2021/11/13 09:17:43;;;;;;;;;;;;;;;;;;5059325;28;19912;-58
2021/11/13 09:20:09;;;;;;;;;;;;;;;;;;5061615;28;19912;-59
2021/11/13 09:22:36;;;;;;;;;;;;;;;;;;5064660;28;20057;-58
2021/11/13 09:25:08;;;;;;;;;;;;;;;;;;5061369;28;20402;-58
2021/11/13 09:27:33;;;;;;;;;;;;;;;;;;5058568;28;19912;-58
2021/11/13 09:29:59;;;;;;;;;;;;;;;;;;5065007;28;20000;-58
2021/11/13 09:32:25;;;;;;;;;;;;;;;;;;5058097;28;19916;-58
2021/11/13 09:34:51;;;;;;;;;;;;;;;;;;5061987;28;19919;-59
2021/11/13 09:37:17;;;;;;;;;;;;;;;;;;5067277;28;19955;-59
2021/11/13 09:39:43;;;;;;;;;;;;;;;;;;5063017;28;19916;-58
2021/11/13 09:42:09;;;;;;;;;;;;;;;;;;5046215;28;19947;-59
2021/11/13 09:44:35;;;;;;;;;;;;;;;;;;5058725;28;19916;-59
2021/11/13 09:47:01;;;;;;;;;;;;;;;;;;5066563;28;20367;-59
2021/11/13 09:49:27;;;;;;;;;;;;;;;;;;5066618;28;19915;-59
2021/11/13 09:51:53;;;;;;;;;;;;;;;;;;5067061;28;19912;-59
2021/11/13 09:54:19;;;;;;;;;;;;;;;;;;5073347;28;19908;-59
2021/11/13 09:56:45;;;;;;;;;;;;;;;;;;5065532;28;19961;-59
2021/11/13 09:59:11;;;;;;;;;;;;;;;;;;5076996;28;19912;-59
2021/11/13 10:01:37;;;;;;;;;;;;;;;;;;5066865;28;19908;-59
2021/11/13 10:04:03;;;;;;;;;;;;;;;;;;5066813;28;20443;-59
2021/11/13 10:06:29;;;;;;;;;;;;;;;;;;5066784;28;19915;-59
2021/11/13 10:08:55;;;;;;;;;;;;;;;;;;5069946;28;19915;-59
2021/11/13 10:11:21;;;;;;;;;;;;;;;;;;5059559;28;19920;-59
2021/11/13 10:13:47;;;;;;;;;;;;;;;;;;5069614;28;19913;-59
2021/11/13 10:16:14;;;;;;;;;;;;;;;;;;5062053;28;19923;-59
2021/11/13 10:18:42;;;;;;;;;;;;;;;;;;5056318;28;19912;-59
2021/11/13 10:21:08;;;;;;;;;;;;;;;;;;5056535;28;19923;-59
2021/11/13 10:23:34;;;;;;;;;;;;;;;;;;5054079;28;20339;-59
2021/11/13 10:26:00;;;;;;;;;;;;;;;;;;5053395;28;19931;-59
2021/11/13 10:28:27;;;;;;;;;;;;;;;;;;5055370;28;19924;-60
2021/11/13 10:30:53;;;;;;;;;;;;;;;;;;5067628;28;19912;-60
2021/11/13 10:33:18;;;;;;;;;;;;;;;;;;5055814;28;19913;-59
2021/11/13 10:35:44;;;;;;;;;;;;;;;;;;5058335;28;20388;-59
2021/11/13 10:38:10;;;;;;;;;;;;;;;;;;5061918;28;19913;-58
2021/11/13 10:40:36;;;;;;;;;;;;;;;;;;5068439;28;19954;-58
2021/11/13 10:43:03;;;;;;;;;;;;;;;;;;5069256;28;20407;-58
2021/11/13 10:45:29;;;;;;;;;;;;;;;;;;5066606;28;20069;-59
2021/11/13 10:47:55;;;;;;;;;;;;;;;;;;5068325;28;20450;-59
2021/11/13 10:50:21;;;;;;;;;;;;;;;;;;5067770;28;19908;-59
2021/11/13 10:52:47;;;;;;;;;;;;;;;;;;5068520;28;19982;-58
2021/11/13 10:55:13;;;;;;;;;;;;;;;;;;5077688;28;20281;-59
2021/11/13 10:57:39;;;;;;;;;;;;;;;;;;5063224;28;19942;-59
2021/11/13 11:00:04;;;;;;;;;;;;;;;;;;5067741;28;19908;-59
2021/11/13 11:02:30;;;;;;;;;;;;;;;;;;5065984;28;20067;-59
2021/11/13 11:04:57;;;;;;;;;;;;;;;;;;5061218;28;20489;-59
2021/11/13 11:07:24;;;;;;;;;;;;;;;;;;5058542;28;19916;-59
2021/11/13 11:09:50;;;;;;;;;;;;;;;;;;5063567;28;19950;-59
2021/11/13 11:12:16;;;;;;;;;;;;;;;;;;5060260;28;20322;-59
2021/11/13 11:14:43;;;;;;;;;;;;;;;;;;5071361;28;19921;-59
2021/11/13 11:17:12;;;;;;;;;;;;;;;;;;5061802;28;19928;-59
2021/11/13 11:19:37;;;;;;;;;;;;;;;;;;5078367;28;19998;-59
2021/11/13 11:22:03;;;;;;;;;;;;;;;;;;5069181;28;20461;-59
2021/11/13 11:24:29;;;;;;;;;;;;;;;;;;5060293;28;19909;-59
2021/11/13 11:26:55;;;;;;;;;;;;;;;;;;5066465;28;19995;-59
2021/11/13 11:29:21;;;;;;;;;;;;;;;;;;5068702;28;19948;-59
2021/11/13 11:31:47;;;;;;;;;;;;;;;;;;5068619;28;19958;-59
2021/11/13 11:34:13;;;;;;;;;;;;;;;;;;5068696;28;19912;-58
2021/11/13 11:36:41;;;;;;;;;;;;;;;;;;5069409;28;19916;-59
2021/11/13 11:39:07;;;;;;;;;;;;;;;;;;5061291;28;19914;-59
2021/11/13 11:41:33;;;;;;;;;;;;;;;;;;5058500;28;19912;-59
2021/11/13 11:43:59;;;;;;;;;;;;;;;;;;5070032;28;19913;-59
2021/11/13 11:46:26;;;;;;;;;;;;;;;;;;5068784;28;19908;-59
2021/11/13 11:48:52;;;;;;;;;;;;;;;;;;5068582;28;19916;-59
2021/11/13 11:51:18;;;;;;;;;;;;;;;;;;5068985;28;19915;-59
2021/11/13 11:53:44;;;;;;;;;;;;;;;;;;5068596;28;19954;-59
2021/11/13 11:56:10;;;;;;;;;;;;;;;;;;5054318;28;19917;-60
2021/11/13 11:58:36;;;;;;;;;;;;;;;;;;5057758;28;19916;-59
2021/11/13 12:01:02;;;;;;;;;;;;;;;;;;5048587;28;19912;-59
2021/11/13 12:03:30;;;;;;;;;;;;;;;;;;5055376;28;19924;-59
2021/11/13 12:05:56;;;;;;;;;;;;;;;;;;5053300;28;19996;-59
2021/11/13 12:08:23;;;;;;;;;;;;;;;;;;5054553;28;20023;-59
2021/11/13 12:10:48;;;;;;;;;;;;;;;;;;5054505;28;19916;-59
2021/11/13 12:13:14;;;;;;;;;;;;;;;;;;5054657;28;19924;-59
2021/11/13 12:15:40;;;;;;;;;;;;;;;;;;5067372;28;19960;-59
2021/11/13 12:18:06;;;;;;;;;;;;;;;;;;5060848;28;19999;-59
2021/11/13 12:20:32;;;;;;;;;;;;;;;;;;5063202;28;19966;-59
2021/11/13 12:22:58;;;;;;;;;;;;;;;;;;5053035;28;19916;-59
2021/11/13 12:25:24;;;;;;;;;;;;;;;;;;5067715;28;19987;-59
2021/11/13 12:27:50;;;;;;;;;;;;;;;;;;5067818;28;19947;-59
2021/11/13 12:30:16;;;;;;;;;;;;;;;;;;5057720;28;20376;-59
2021/11/13 12:32:42;;;;;;;;;;;;;;;;;;5066242;28;19916;-59
2021/11/13 12:35:13;;;;;;;;;;;;;;;;;;5059147;28;19913;-59
2021/11/13 12:37:39;;;;;;;;;;;;;;;;;;5064913;28;19927;-59
2021/11/13 12:40:05;;;;;;;;;;;;;;;;;;5081973;28;19908;-59
2021/11/13 12:42:31;;;;;;;;;;;;;;;;;;5072304;28;19974;-59
2021/11/13 12:44:57;;;;;;;;;;;;;;;;;;5051644;28;19951;-60
2021/11/13 12:47:23;;;;;;;;;;;;;;;;;;5046749;28;20024;-60
2021/11/13 12:49:49;;;;;;;;;;;;;;;;;;5046688;28;19966;-60
2021/11/13 12:52:15;;;;;;;;;;;;;;;;;;5058636;28;19909;-60
2021/11/13 12:54:41;;;;;;;;;;;;;;;;;;5064116;28;19912;-60
2021/11/13 12:57:07;;;;;;;;;;;;;;;;;;5055937;28;19913;-60
2021/11/13 12:59:33;;;;;;;;;;;;;;;;;;5077983;28;19916;-61
2021/11/13 13:01:59;;;;;;;;;;;;;;;;;;5066308;28;20002;-59
2021/11/13 13:04:25;;;;;;;;;;;;;;;;;;5050820;28;19932;-59
2021/11/13 13:06:51;;;;;;;;;;;;;;;;;;5070924;28;19946;-58
2021/11/13 13:09:17;;;;;;;;;;;;;;;;;;5058445;28;19908;-59
2021/11/13 13:11:43;;;;;;;;;;;;;;;;;;5067965;28;19986;-58
2021/11/13 13:14:09;;;;;;;;;;;;;;;;;;5060684;28;19916;-58
2021/11/13 13:16:35;;;;;;;;;;;;;;;;;;5054581;28;20339;-59
2021/11/13 13:19:01;;;;;;;;;;;;;;;;;;5059090;28;19912;-59
2021/11/13 13:21:29;;;;;;;;;;;;;;;;;;5051834;28;20204;-58
2021/11/13 13:23:55;;;;;;;;;;;;;;;;;;5063563;28;20342;-59
2021/11/13 13:26:21;;;;;;;;;;;;;;;;;;5053570;28;19960;-59
2021/11/13 13:28:47;;;;;;;;;;;;;;;;;;5052066;28;19944;-59
2021/11/13 13:31:13;;;;;;;;;;;;;;;;;;5059015;28;20007;-59
2021/11/13 13:33:39;;;;;;;;;;;;;;;;;;5065279;28;19912;-58
2021/11/13 13:36:05;;;;;;;;;;;;;;;;;;5051572;28;19990;-59
2021/11/13 13:38:31;;;;;;;;;;;;;;;;;;5065642;28;19912;-58
2021/11/13 13:40:58;;;;;;;;;;;;;;;;;;5049527;28;19943;-58
2021/11/13 13:43:24;;;;;;;;;;;;;;;;;;5045762;28;20011;-58
2021/11/13 13:45:50;;;;;;;;;;;;;;;;;;5046262;28;19924;-59
2021/11/13 13:48:16;;;;;;;;;;;;;;;;;;5048631;28;19920;-59
2021/11/13 13:50:41;;;;;;;;;;;;;;;;;;5047757;28;19920;-59
2021/11/13 13:53:07;;;;;;;;;;;;;;;;;;5053284;28;19912;-59
2021/11/13 13:55:33;;;;;;;;;;;;;;;;;;5045913;28;19923;-58
2021/11/13 13:58:00;;;;;;;;;;;;;;;;;;5044617;28;19909;-59
2021/11/13 14:00:26;;;;;;;;;;;;;;;;;;5051113;28;19975;-59
2021/11/13 14:02:53;;;;;;;;;;;;;;;;;;5054769;28;20104;-60
2021/11/13 14:05:19;;;;;;;;;;;;;;;;;;5051350;28;19913;-60
2021/11/13 14:07:45;;;;;;;;;;;;;;;;;;5049104;28;19966;-59
2021/11/13 14:10:13;;;;;;;;;;;;;;;;;;5051916;28;19932;-59
2021/11/13 14:12:39;;;;;;;;;;;;;;;;;;5050643;28;19943;-59
2021/11/13 14:15:05;;;;;;;;;;;;;;;;;;5049375;28;20618;-60
2021/11/13 14:17:33;;;;;;;;;;;;;;;;;;5051918;28;20365;-59
2021/11/13 14:19:59;;;;;;;;;;;;;;;;;;5056232;28;19936;-58
2021/11/13 14:22:25;;;;;;;;;;;;;;;;;;5043961;28;19913;-59
2021/11/13 14:24:52;;;;;;;;;;;;;;;;;;5054384;28;19916;-59
2021/11/13 14:27:18;;;;;;;;;;;;;;;;;;5056928;28;19935;-59
2021/11/13 14:29:44;;;;;;;;;;;;;;;;;;5052706;28;19981;-58
2021/11/13 14:32:10;;;;;;;;;;;;;;;;;;5052418;28;20419;-59
2021/11/13 14:34:37;;;;;;;;;;;;;;;;;;5051135;28;20372;-58
2021/11/13 14:37:06;;;;;;;;;;;;;;;;;;5051984;28;19927;-58
2021/11/13 14:39:33;;;;;;;;;;;;;;;;;;5053245;28;20383;-59
2021/11/13 14:42:00;;;;;;;;;;;;;;;;;;5051230;28;19913;-59
2021/11/13 14:44:26;;;;;;;;;;;;;;;;;;5046667;28;19917;-59
2021/11/13 14:46:52;;;;;;;;;;;;;;;;;;5048622;28;19924;-59
2021/11/13 14:49:18;;;;;;;;;;;;;;;;;;5052474;28;20327;-60
2021/11/13 14:51:44;;;;;;;;;;;;;;;;;;5052223;28;19923;-59
2021/11/13 14:54:10;;;;;;;;;;;;;;;;;;5054354;28;19913;-59
2021/11/13 14:56:35;;;;;;;;;;;;;;;;;;5051867;28;20388;-60
2021/11/13 14:59:01;;;;;;;;;;;;;;;;;;5062167;28;20021;-60
2021/11/13 15:01:27;;;;;;;;;;;;;;;;;;5063968;28;20023;-60
2021/11/13 15:03:53;;;;;;;;;;;;;;;;;;5053531;28;19924;-59
2021/11/13 15:06:19;;;;;;;;;;;;;;;;;;5057590;28;20445;-59
2021/11/13 15:08:45;;;;;;;;;;;;;;;;;;5057086;28;19999;-59
2021/11/13 15:11:11;;;;;;;;;;;;;;;;;;5059486;28;19920;-59
2021/11/13 15:13:37;;;;;;;;;;;;;;;;;;5050405;28;19913;-59
2021/11/13 15:16:03;;;;;;;;;;;;;;;;;;5052863;28;19999;-59
2021/11/13 15:18:29;;;;;;;;;;;;;;;;;;5057433;28;19913;-59
2021/11/13 15:20:56;;;;;;;;;;;;;;;;;;5054978;28;19912;-59
2021/11/13 15:23:21;;;;;;;;;;;;;;;;;;5055900;28;20323;-59
2021/11/13 15:25:48;;;;;;;;;;;;;;;;;;5052224;28;19920;-59
2021/11/13 15:28:15;;;;;;;;;;;;;;;;;;5052169;28;19944;-59
2021/11/13 15:30:41;;;;;;;;;;;;;;;;;;5058270;28;19921;-59
2021/11/13 15:33:06;;;;;;;;;;;;;;;;;;5052271;28;20392;-59
2021/11/13 15:35:32;;;;;;;;;;;;;;;;;;5057141;28;19966;-58
2021/11/13 15:37:58;;;;;;;;;;;;;;;;;;5055083;28;19912;-59
2021/11/13 15:40:24;;;;;;;;;;;;;;;;;;5055114;28;19958;-59
2021/11/13 15:42:50;;;;;;;;;;;;;;;;;;5053259;28;19923;-59
2021/11/13 15:45:21;;;;;;;;;;;;;;;;;;5052859;28;19924;-59
2021/11/13 15:47:48;;;;;;;;;;;;;;;;;;5053490;28;19917;-58
2021/11/13 15:50:14;;;;;;;;;;;;;;;;;;5054898;28;19921;-59
2021/11/13 15:52:40;;;;;;;;;;;;;;;;;;5051870;28;19924;-58
2021/11/13 15:55:06;;;;;;;;;;;;;;;;;;5049462;28;20326;-59
2021/11/13 15:57:32;;;;;;;;;;;;;;;;;;5057712;28;20391;-59
2021/11/13 15:59:58;;;;;;;;;;;;;;;;;;5050393;28;19931;-59
2021/11/13 16:02:25;;;;;;;;;;;;;;;;;;5053271;28;19917;-59
2021/11/13 16:04:51;;;;;;;;;;;;;;;;;;5060205;28;20136;-59
2021/11/13 16:07:17;;;;;;;;;;;;;;;;;;5054964;28;19912;-59
2021/11/13 16:09:43;;;;;;;;;;;;;;;;;;5059177;28;19912;-59
2021/11/13 16:12:08;;;;;;;;;;;;;;;;;;5051830;28;19925;-59
2021/11/13 16:14:35;;;;;;;;;;;;;;;;;;5057329;28;20419;-59
2021/11/13 16:17:01;;;;;;;;;;;;;;;;;;5058277;28;19946;-59
2021/11/13 16:19:27;;;;;;;;;;;;;;;;;;5053745;28;19917;-59
2021/11/13 16:21:52;;;;;;;;;;;;;;;;;;5053717;28;20403;-59
2021/11/13 16:24:19;;;;;;;;;;;;;;;;;;5048013;28;19913;-59
2021/11/13 16:26:45;;;;;;;;;;;;;;;;;;5049463;28;19960;-59
2021/11/13 16:29:12;;;;;;;;;;;;;;;;;;5060700;28;19948;-59
2021/11/13 16:31:40;;;;;;;;;;;;;;;;;;5061476;28;19933;-59
2021/11/13 16:34:06;;;;;;;;;;;;;;;;;;5060735;28;20306;-58
2021/11/13 16:36:32;;;;;;;;;;;;;;;;;;5053630;28;19925;-59
2021/11/13 16:38:58;;;;;;;;;;;;;;;;;;5056667;28;19919;-58
2021/11/13 16:41:24;;;;;;;;;;;;;;;;;;5058536;28;20015;-59